Time;durP1;ratioP1;P1;durP2;ratioP2;P2;SDS_P1;SDS_P2;PMS_P1;PMS_P2;Temp;Humidity;BMP_temperature;BMP_pressure;BME280_temperature;BME280_humidity;BME280_pressure;Samples;Min_cycle;Max_cycle;Signal;HPM_P1;HPM_P2
2023/11/05 00:04:34;;;;;;;3.28;1.88;;;17.30;93.50;;;;;;10549100;27;20527;-36
2023/11/05 00:09:35;;;;;;;4.72;2.92;;;17.30;93.20;;;;;;10549774;28;20126;-31
2023/11/05 00:14:38;;;;;;;6.07;2.33;;;17.20;94.00;;;;;;10547662;27;20549;-33
2023/11/05 00:19:41;;;;;;;6.45;3.03;;;16.80;94.90;;;;;;10547627;28;20043;-40
2023/11/05 00:24:43;;;;;;;6.55;2.58;;;17.30;93.40;;;;;;10547656;28;20626;-40
2023/11/05 00:29:46;;;;;;;4.70;2.90;;;17.10;93.30;;;;;;10551657;28;20047;-36
2023/11/05 00:34:47;;;;;;;6.88;2.83;;;17.10;93.60;;;;;;10559793;28;20127;-44
2023/11/05 00:39:49;;;;;;;4.90;2.80;;;17.30;93.30;;;;;;10560934;27;20067;-31
2023/11/05 00:44:53;;;;;;;4.93;2.60;;;16.70;94.70;;;;;;10554559;27;20092;-37
2023/11/05 00:49:54;;;;;;;4.05;2.88;;;16.80;93.80;;;;;;10557083;27;20471;-37
2023/11/05 00:54:56;;;;;;;6.17;3.20;;;17.10;93.70;;;;;;10557749;28;20127;-32
2023/11/05 00:59:59;;;;;;;12.23;3.15;;;17.20;93.30;;;;;;10559779;27;20047;-39
2023/11/05 01:05:01;;;;;;;5.22;2.92;;;17.00;93.70;;;;;;10556980;27;20044;-39
2023/11/05 01:10:04;;;;;;;8.02;3.25;;;16.90;92.90;;;;;;10558192;27;20048;-35
2023/11/05 01:15:08;;;;;;;6.80;3.10;;;16.90;94.40;;;;;;10557142;28;20052;-33
2023/11/05 01:20:11;;;;;;;8.98;2.95;;;17.10;93.90;;;;;;10558339;27;20051;-33
2023/11/05 01:25:13;;;;;;;3.28;2.58;;;17.10;93.10;;;;;;10556293;28;20044;-37
2023/11/05 01:30:16;;;;;;;6.27;3.07;;;17.30;92.80;;;;;;10556068;28;20048;-30
2023/11/05 01:35:18;;;;;;;3.67;2.35;;;16.90;94.00;;;;;;10559023;27;20440;-35
2023/11/05 01:40:20;;;;;;;6.97;2.90;;;17.10;93.30;;;;;;10557323;27;20048;-34
2023/11/05 01:45:23;;;;;;;5.47;2.97;;;17.40;92.70;;;;;;10554700;28;20616;-45
2023/11/05 01:50:26;;;;;;;5.97;2.85;;;17.30;93.00;;;;;;10551933;27;20071;-36
2023/11/05 01:55:28;;;;;;;4.90;2.88;;;17.30;92.60;;;;;;10554642;28;20714;-37
2023/11/05 02:00:32;;;;;;;5.90;3.80;;;17.40;92.50;;;;;;10553945;28;20138;-36
2023/11/05 02:05:34;;;;;;;5.63;2.17;;;17.00;93.70;;;;;;10554577;28;20531;-33
2023/11/05 02:10:36;;;;;;;5.07;3.00;;;17.30;92.70;;;;;;10559026;27;20126;-45
2023/11/05 02:15:39;;;;;;;4.87;2.57;;;17.20;93.10;;;;;;10548417;27;20054;-33
2023/11/05 02:20:41;;;;;;;5.85;2.95;;;17.00;93.40;;;;;;10554640;28;20056;-29
2023/11/05 02:25:44;;;;;;;8.43;2.10;;;17.00;94.10;;;;;;10558207;28;20055;-34
2023/11/05 02:30:46;;;;;;;10.00;2.20;;;16.90;93.20;;;;;;10557224;28;20610;-32
2023/11/05 02:35:48;;;;;;;4.37;3.00;;;17.10;93.00;;;;;;10558117;28;20094;-33
2023/11/05 02:40:51;;;;;;;6.53;3.37;;;17.40;92.70;;;;;;10558902;28;20448;-36
2023/11/05 02:45:53;;;;;;;7.38;3.20;;;17.40;92.60;;;;;;10555313;27;20547;-42
2023/11/05 02:50:54;;;;;;;5.67;3.30;;;17.60;92.10;;;;;;10553364;28;20085;-34
2023/11/05 02:55:58;;;;;;;5.23;2.90;;;17.40;92.20;;;;;;10555426;27;20060;-40
2023/11/05 03:01:00;;;;;;;4.40;2.88;;;17.40;92.50;;;;;;10551078;27;20079;-33
2023/11/05 03:06:02;;;;;;;5.55;2.78;;;17.50;92.20;;;;;;10553506;27;20136;-40
2023/11/05 03:11:05;;;;;;;6.23;2.57;;;17.40;92.40;;;;;;10554970;28;20127;-38
2023/11/05 03:16:11;;;;;;;5.70;2.85;;;17.40;91.90;;;;;;10551196;28;20646;-36
2023/11/05 03:21:15;;;;;;;8.65;3.40;;;17.30;92.50;;;;;;10552489;27;20090;-35
2023/11/05 03:26:18;;;;;;;3.90;2.40;;;17.40;92.20;;;;;;10551842;28;20420;-32
2023/11/05 03:31:20;;;;;;;6.28;2.75;;;17.50;91.90;;;;;;10552697;27;20485;-40
2023/11/05 03:36:21;;;;;;;5.83;2.73;;;17.40;92.30;;;;;;10549517;28;20127;-35
2023/11/05 03:41:25;;;;;;;3.40;2.00;;;17.50;92.00;;;;;;10553240;28;20051;-40
2023/11/05 03:46:26;;;;;;;7.38;2.40;;;17.60;91.60;;;;;;10552640;28;20061;-28
2023/11/05 03:51:28;;;;;;;4.70;2.97;;;17.10;92.50;;;;;;10552444;28;20128;-46
2023/11/05 03:56:31;;;;;;;4.83;3.00;;;17.10;92.90;;;;;;10553880;28;20101;-38
2023/11/05 04:15:28;;;;;;;3.60;2.78;;;17.50;91.70;;;;;;10516460;27;1298400;-41
2023/11/05 04:20:30;;;;;;;4.07;2.42;;;17.50;91.80;;;;;;10578217;28;20051;-31
2023/11/05 04:25:32;;;;;;;4.10;2.33;;;17.60;91.60;;;;;;10580087;28;20097;-39
2023/11/05 04:30:35;;;;;;;3.93;2.57;;;17.50;92.00;;;;;;10580060;28;20055;-31
2023/11/05 04:35:37;;;;;;;4.90;2.17;;;17.50;91.80;;;;;;10576712;28;20503;-38
2023/11/05 04:40:39;;;;;;;3.90;1.80;;;17.60;91.50;;;;;;10584145;28;20144;-32
2023/11/05 04:45:42;;;;;;;5.80;2.30;;;17.60;91.60;;;;;;10580931;28;20101;-38
2023/11/05 04:50:44;;;;;;;5.47;1.98;;;17.40;91.90;;;;;;10580129;28;20079;-31
2023/11/05 04:55:46;;;;;;;3.27;1.87;;;17.40;91.80;;;;;;10575580;28;20063;-30
2023/11/05 05:00:49;;;;;;;3.15;2.03;;;17.30;92.60;;;;;;10579810;28;20043;-39
2023/11/05 05:05:51;;;;;;;5.07;1.67;;;17.40;92.20;;;;;;10580329;28;20615;-31
2023/11/05 05:10:53;;;;;;;3.80;2.30;;;17.50;92.00;;;;;;10584805;28;20040;-32
2023/11/05 05:15:56;;;;;;;2.83;2.23;;;17.20;92.70;;;;;;10580996;28;20390;-36
2023/11/05 05:20:58;;;;;;;4.13;2.42;;;17.00;93.50;;;;;;10582591;28;20075;-38
2023/11/05 05:26:02;;;;;;;5.33;2.17;;;16.70;94.40;;;;;;10555285;28;20047;-39
2023/11/05 05:31:05;;;;;;;5.50;1.77;;;16.10;97.30;;;;;;10553890;28;20369;-31
2023/11/05 05:36:08;;;;;;;3.97;2.05;;;16.40;96.00;;;;;;10550659;28;20043;-34
2023/11/05 05:41:10;;;;;;;6.35;2.53;;;17.10;94.20;;;;;;10553164;28;20048;-31
2023/11/05 05:46:15;;;;;;;4.00;2.83;;;16.80;94.30;;;;;;10549303;28;20543;-31
2023/11/05 05:51:17;;;;;;;3.58;2.00;;;16.40;96.90;;;;;;10550817;28;20162;-31
2023/11/05 05:56:19;;;;;;;5.07;1.87;;;16.70;95.40;;;;;;10550193;28;20043;-35
2023/11/05 06:01:23;;;;;;;4.73;1.87;;;16.60;95.70;;;;;;10551065;28;20644;-34
2023/11/05 06:06:25;;;;;;;2.20;1.83;;;16.80;94.90;;;;;;10547490;28;20035;-36
2023/11/05 06:11:27;;;;;;;5.82;1.95;;;16.90;94.60;;;;;;10547899;28;20043;-39
2023/11/05 06:16:30;;;;;;;4.87;2.40;;;17.00;94.20;;;;;;10545846;28;20051;-41
2023/11/05 06:21:31;;;;;;;3.63;1.85;;;15.90;98.30;;;;;;10552202;28;20863;-37
2023/11/05 06:26:33;;;;;;;5.10;2.27;;;16.30;97.40;;;;;;10549615;28;20116;-32
2023/11/05 06:31:36;;;;;;;2.67;1.90;;;16.30;96.50;;;;;;10541232;28;20488;-34
2023/11/05 06:36:56;;;;;;;12.93;3.15;;;15.60;99.90;;;;;;10542899;28;20051;-40
2023/11/05 06:41:58;;;;;;;4.22;2.05;;;15.40;99.00;;;;;;10540334;28;20044;-36
2023/11/05 06:47:01;;;;;;;8.10;2.63;;;15.10;99.90;;;;;;10545194;28;20757;-44
2023/11/05 06:52:03;;;;;;;3.20;1.98;;;15.70;99.90;;;;;;10543028;28;20093;-42
2023/11/05 06:57:05;;;;;;;10.55;1.98;;;15.30;99.90;;;;;;10541631;28;20071;-37
2023/11/05 07:02:10;;;;;;;5.47;2.10;;;14.50;99.90;;;;;;10544559;28;20582;-31
2023/11/05 07:07:12;;;;;;;8.10;2.00;;;14.70;99.90;;;;;;10544053;28;20761;-37
2023/11/05 07:12:14;;;;;;;5.28;2.03;;;14.60;99.90;;;;;;10540274;28;20079;-32
2023/11/05 07:17:17;;;;;;;6.60;1.65;;;14.30;99.90;;;;;;10541691;28;20894;-33
2023/11/05 07:22:19;;;;;;;6.45;2.72;;;14.80;99.90;;;;;;10540548;28;20135;-30
2023/11/05 07:27:21;;;;;;;5.77;1.60;;;14.30;99.90;;;;;;10541736;28;20047;-36
2023/11/05 07:32:25;;;;;;;13.90;2.00;;;13.50;99.90;;;;;;10539676;28;20108;-34
2023/11/05 07:37:27;;;;;;;5.88;1.83;;;14.10;99.90;;;;;;10540168;28;20182;-34
2023/11/05 07:42:29;;;;;;;3.75;1.83;;;13.50;99.90;;;;;;10535167;28;20036;-35
2023/11/05 07:47:32;;;;;;;4.45;2.17;;;14.60;99.90;;;;;;10536947;28;20559;-41
2023/11/05 07:52:34;;;;;;;4.20;1.58;;;14.40;99.90;;;;;;10546672;28;20043;-32
2023/11/05 07:57:36;;;;;;;11.90;1.65;;;14.30;99.90;;;;;;10538533;28;20142;-36
2023/11/05 08:02:40;;;;;;;7.80;2.08;;;14.50;99.90;;;;;;10533582;28;20040;-39
2023/11/05 08:07:42;;;;;;;6.78;2.67;;;14.60;99.90;;;;;;10534644;28;20044;-32
2023/11/05 08:12:44;;;;;;;4.83;2.10;;;13.50;99.90;;;;;;10533051;28;20060;-35
2023/11/05 08:17:47;;;;;;;7.27;2.03;;;14.10;99.90;;;;;;10533451;28;20036;-31
2023/11/05 08:22:48;;;;;;;8.70;1.88;;;14.90;99.90;;;;;;10529922;28;20125;-32
2023/11/05 08:27:51;;;;;;;7.68;2.05;;;15.60;99.90;;;;;;10530622;28;20051;-33
2023/11/05 08:32:54;;;;;;;3.45;1.50;;;14.80;99.90;;;;;;10527171;28;20059;-44
2023/11/05 08:37:57;;;;;;;10.45;2.22;;;15.00;99.90;;;;;;10536662;28;20400;-33
2023/11/05 08:42:59;;;;;;;3.58;1.65;;;14.10;99.90;;;;;;10531945;28;20080;-33
2023/11/05 08:48:03;;;;;;;3.83;1.35;;;14.90;99.90;;;;;;10533976;28;20149;-37
2023/11/05 08:53:04;;;;;;;6.97;1.92;;;13.80;99.90;;;;;;10539264;28;20040;-36
2023/11/05 08:58:06;;;;;;;7.90;1.80;;;14.00;99.90;;;;;;10541230;28;20035;-38
2023/11/05 09:03:09;;;;;;;5.25;1.13;;;12.70;99.90;;;;;;10547606;28;20079;-36
2023/11/05 09:08:11;;;;;;;10.30;1.98;;;12.20;99.90;;;;;;10539489;28;20538;-37
2023/11/05 09:13:13;;;;;;;13.27;1.35;;;12.10;99.90;;;;;;10546046;28;20052;-35
2023/11/05 09:18:16;;;;;;;7.23;0.70;;;11.90;99.90;;;;;;10545247;28;20156;-33
2023/11/05 09:23:18;;;;;;;5.85;0.85;;;12.10;99.90;;;;;;10545711;28;20130;-36
2023/11/05 09:28:20;;;;;;;11.50;1.13;;;12.10;99.90;;;;;;10544543;28;20032;-31
2023/11/05 09:33:23;;;;;;;14.32;3.10;;;12.50;99.90;;;;;;10541814;28;20097;-37
2023/11/05 09:38:25;;;;;;;10.40;3.35;;;12.90;99.90;;;;;;10546913;28;20117;-34
2023/11/05 09:43:26;;;;;;;11.35;2.53;;;12.30;99.90;;;;;;10546172;28;20089;-33
2023/11/05 09:48:31;;;;;;;7.07;1.50;;;12.90;99.90;;;;;;10549461;28;20096;-38
2023/11/05 09:53:32;;;;;;;12.50;1.92;;;12.50;99.90;;;;;;10549162;27;20044;-36
2023/11/05 09:58:34;;;;;;;10.85;2.60;;;12.40;99.90;;;;;;10543674;28;20130;-33
2023/11/05 10:03:37;;;;;;;5.63;1.90;;;12.50;99.90;;;;;;10546574;28;20042;-33
2023/11/05 10:08:39;;;;;;;14.52;2.40;;;12.80;99.90;;;;;;10550632;28;20167;-35
2023/11/05 10:13:41;;;;;;;6.70;1.73;;;12.30;99.90;;;;;;10541504;28;20162;-37
2023/11/05 10:18:45;;;;;;;7.93;2.60;;;12.80;99.90;;;;;;10542160;27;20055;-39
2023/11/05 10:23:51;;;;;;;10.35;2.15;;;12.70;99.90;;;;;;10547016;28;20044;-31
2023/11/05 10:28:54;;;;;;;4.63;2.03;;;12.60;99.90;;;;;;10545692;27;20056;-40
2023/11/05 10:33:58;;;;;;;12.70;2.17;;;12.90;99.90;;;;;;10541709;28;20048;-34
2023/11/05 10:39:00;;;;;;;12.43;2.50;;;12.60;99.90;;;;;;10547056;28;20048;-36
2023/11/05 10:44:05;;;;;;;11.20;3.40;;;12.30;99.90;;;;;;10540756;28;20051;-39
2023/11/05 10:49:09;;;;;;;9.85;2.40;;;12.60;99.90;;;;;;10544476;28;20043;-44
2023/11/05 10:54:11;;;;;;;7.72;2.20;;;12.60;99.90;;;;;;10543417;28;20728;-34
2023/11/05 10:59:14;;;;;;;11.57;2.20;;;12.60;99.90;;;;;;10535582;28;20531;-38
2023/11/05 11:04:19;;;;;;;9.63;1.77;;;12.20;99.90;;;;;;10534591;28;20059;-36
2023/11/05 11:09:24;;;;;;;8.30;1.55;;;12.50;99.90;;;;;;10541995;28;20054;-35
2023/11/05 11:14:27;;;;;;;7.50;1.63;;;12.30;99.90;;;;;;10543241;27;20075;-40
2023/11/05 11:19:30;;;;;;;;;;;12.60;99.90;;;;;;10540044;28;20040;-31
2023/11/05 11:24:34;;;;;;;6.05;1.75;;;12.60;99.90;;;;;;10541076;28;19916;-35
2023/11/05 11:29:37;;;;;;;18.88;2.38;;;12.80;99.90;;;;;;10544889;28;20048;-32
2023/11/05 11:34:44;;;;;;;8.15;1.50;;;12.40;99.90;;;;;;10545730;28;20046;-31
2023/11/05 11:39:48;;;;;;;10.60;1.83;;;12.10;99.90;;;;;;10540262;27;20048;-38
2023/11/05 11:44:49;;;;;;;8.65;1.40;;;12.20;99.90;;;;;;10543879;28;20036;-30
2023/11/05 11:49:53;;;;;;;11.00;1.50;;;12.10;99.90;;;;;;10545842;27;20082;-28
2023/11/05 11:54:55;;;;;;;11.93;1.98;;;11.90;99.90;;;;;;10536646;28;20070;-39
2023/11/05 11:59:56;;;;;;;15.32;1.92;;;12.10;99.90;;;;;;10531124;28;20135;-31
2023/11/05 12:05:00;;;;;;;4.78;1.20;;;11.90;99.90;;;;;;10537565;28;20273;-41
2023/11/05 12:10:02;;;;;;;13.43;2.17;;;11.90;99.90;;;;;;10544802;28;20579;-33
2023/11/05 12:15:04;;;;;;;12.47;1.83;;;12.30;99.90;;;;;;10535000;28;20040;-34
2023/11/05 12:20:11;;;;;;;9.77;1.43;;;12.50;99.90;;;;;;10532363;28;20369;-34
2023/11/05 12:25:13;;;;;;;8.02;1.67;;;12.60;99.90;;;;;;10538416;28;20050;-36
2023/11/05 12:30:19;;;;;;;14.13;1.67;;;13.10;99.90;;;;;;10536192;28;20141;-32
2023/11/05 12:35:23;;;;;;;10.43;1.70;;;12.80;99.90;;;;;;10547493;28;20050;-49
2023/11/05 12:40:25;;;;;;;12.95;2.15;;;12.70;99.90;;;;;;10550253;28;20028;-48
2023/11/05 12:45:26;;;;;;;14.45;1.67;;;12.70;99.90;;;;;;10542875;28;20139;-33
2023/11/05 12:50:29;;;;;;;9.73;2.17;;;13.00;99.90;;;;;;10543650;28;20048;-37
2023/11/05 12:55:31;;;;;;;13.60;1.38;;;12.50;99.90;;;;;;10550970;28;20135;-31
2023/11/05 13:00:33;;;;;;;8.80;2.20;;;12.30;99.90;;;;;;10551171;28;20051;-35
2023/11/05 13:05:36;;;;;;;12.00;1.80;;;12.80;99.90;;;;;;10544052;28;20498;-34
2023/11/05 13:10:39;;;;;;;13.38;2.35;;;12.30;99.90;;;;;;10545218;28;20434;-42
2023/11/05 13:15:41;;;;;;;11.55;2.17;;;11.90;99.90;;;;;;10548869;28;20500;-33
2023/11/05 13:20:45;;;;;;;12.95;2.08;;;12.40;99.90;;;;;;10551104;28;20055;-39
2023/11/05 13:25:46;;;;;;;13.32;1.98;;;12.20;99.90;;;;;;10551789;28;20059;-38
2023/11/05 13:30:48;;;;;;;14.60;2.00;;;12.20;99.90;;;;;;10546944;28;20044;-35
2023/11/05 13:35:51;;;;;;;18.85;3.00;;;12.30;99.90;;;;;;10548500;28;20046;-30
2023/11/05 13:40:53;;;;;;;16.45;3.10;;;12.40;99.90;;;;;;10549105;28;20056;-37
2023/11/05 13:45:55;;;;;;;9.93;2.13;;;12.00;99.90;;;;;;10543403;28;20084;-33
2023/11/05 13:50:58;;;;;;;12.77;2.40;;;12.40;99.90;;;;;;10544864;28;20486;-48
2023/11/05 13:56:01;;;;;;;13.60;1.60;;;12.40;99.90;;;;;;10544880;28;20071;-33
2023/11/05 14:01:03;;;;;;;15.85;2.83;;;12.60;99.90;;;;;;10541070;28;20039;-38
2023/11/05 14:06:07;;;;;;;17.67;2.83;;;12.30;99.90;;;;;;10540179;28;20047;-30
2023/11/05 14:11:09;;;;;;;8.30;1.45;;;12.40;99.90;;;;;;10541839;28;20093;-37
2023/11/05 14:16:11;;;;;;;7.75;1.77;;;12.40;99.90;;;;;;10541064;28;20119;-33
2023/11/05 14:21:15;;;;;;;12.68;2.65;;;12.60;99.90;;;;;;10542811;28;20044;-51
2023/11/05 14:26:17;;;;;;;13.02;3.15;;;12.30;99.90;;;;;;10543115;28;20674;-38
2023/11/05 14:31:20;;;;;;;9.15;1.80;;;12.20;99.90;;;;;;10545469;28;20050;-34
2023/11/05 14:36:23;;;;;;;9.20;2.70;;;12.20;99.90;;;;;;10541346;28;20057;-39
2023/11/05 14:41:26;;;;;;;13.55;1.80;;;12.50;99.90;;;;;;10538030;28;20040;-35
2023/11/05 14:46:27;;;;;;;11.33;2.60;;;13.00;99.90;;;;;;10544706;28;20128;-38
2023/11/05 14:51:31;;;;;;;11.80;2.17;;;12.70;99.90;;;;;;10543964;28;20040;-46
2023/11/05 14:56:33;;;;;;;12.48;2.25;;;12.80;99.90;;;;;;10540458;28;20048;-41
2023/11/05 15:01:34;;;;;;;15.00;1.75;;;12.30;99.90;;;;;;10540146;28;20064;-49
2023/11/05 15:06:38;;;;;;;21.10;2.40;;;12.80;99.90;;;;;;10540101;28;20278;-33
2023/11/05 15:11:40;;;;;;;9.32;2.15;;;12.50;99.90;;;;;;10534118;28;20047;-37
2023/11/05 15:16:42;;;;;;;14.55;2.20;;;13.10;99.90;;;;;;10534662;28;20443;-38
2023/11/05 15:21:45;;;;;;;10.20;2.50;;;12.90;99.90;;;;;;10537755;28;20043;-32
2023/11/05 15:26:47;;;;;;;16.80;2.42;;;12.50;99.90;;;;;;10537687;28;20178;-31
2023/11/05 15:31:49;;;;;;;9.80;2.13;;;12.60;99.90;;;;;;10534096;28;20560;-37
2023/11/05 15:36:52;;;;;;;12.40;2.45;;;12.80;99.90;;;;;;10542069;28;20903;-31
2023/11/05 15:41:55;;;;;;;15.18;3.50;;;13.30;99.90;;;;;;10537774;27;20031;-37
2023/11/05 15:46:58;;;;;;;13.25;2.10;;;13.30;99.90;;;;;;10544275;27;20046;-32
2023/11/05 15:52:01;;;;;;;12.70;2.70;;;12.90;99.90;;;;;;10547093;28;20066;-35
2023/11/05 15:57:03;;;;;;;10.73;1.98;;;12.70;99.90;;;;;;10540558;28;20117;-35
2023/11/05 16:02:05;;;;;;;12.27;1.70;;;13.00;99.90;;;;;;10533574;28;20112;-35
2023/11/05 16:07:08;;;;;;;12.45;2.05;;;13.30;99.90;;;;;;10545941;28;20480;-37
2023/11/05 16:12:10;;;;;;;9.13;1.67;;;12.80;99.90;;;;;;10543950;28;20151;-38
2023/11/05 16:17:12;;;;;;;12.05;1.75;;;13.30;99.90;;;;;;10535008;28;20040;-45
2023/11/05 16:22:15;;;;;;;11.25;1.75;;;13.00;99.90;;;;;;10543154;28;20554;-37
2023/11/05 16:27:16;;;;;;;10.75;1.88;;;12.60;99.90;;;;;;10544718;28;20196;-39
2023/11/05 16:32:19;;;;;;;9.35;1.90;;;12.80;99.90;;;;;;10541555;28;20091;-42
2023/11/05 16:37:23;;;;;;;8.65;1.33;;;12.70;99.90;;;;;;10542682;28;20084;-34
2023/11/05 16:42:25;;;;;;;8.52;2.58;;;13.10;99.90;;;;;;10542719;28;20040;-36
2023/11/05 16:47:27;;;;;;;10.30;1.48;;;12.70;99.90;;;;;;10536904;28;20055;-35
2023/11/05 16:52:30;;;;;;;9.68;2.00;;;12.70;99.90;;;;;;10540163;28;20059;-32
2023/11/05 16:57:32;;;;;;;;;;;12.80;99.90;;;;;;10544953;28;20038;-38
2023/11/05 17:02:33;;;;;;;8.23;1.73;;;12.80;99.90;;;;;;10540037;28;20264;-33
2023/11/05 17:07:37;;;;;;;2.45;1.40;;;12.90;99.90;;;;;;10538464;28;20093;-32
2023/11/05 17:12:38;;;;;;;7.43;1.17;;;12.50;99.90;;;;;;10543719;28;21228;-35
2023/11/05 17:17:40;;;;;;;13.02;1.40;;;12.50;99.90;;;;;;10536868;28;20055;-32
2023/11/05 17:22:43;;;;;;;13.20;1.85;;;12.60;99.90;;;;;;10544503;28;20040;-39
2023/11/05 17:27:47;;;;;;;5.05;2.10;;;12.50;99.90;;;;;;10550332;28;20175;-40
2023/11/05 17:32:51;;;;;;;9.02;1.90;;;12.50;99.90;;;;;;10533314;28;20536;-37
2023/11/05 17:37:54;;;;;;;12.20;2.20;;;12.80;99.90;;;;;;10546292;28;20051;-42
2023/11/05 17:42:56;;;;;;;13.02;1.77;;;12.80;99.90;;;;;;10550432;28;20155;-34
2023/11/05 17:47:58;;;;;;;18.45;3.13;;;12.80;99.90;;;;;;10538881;28;20543;-40
2023/11/05 17:53:01;;;;;;;11.48;1.73;;;13.00;99.90;;;;;;10550720;28;20491;-38
2023/11/05 17:58:04;;;;;;;10.07;1.52;;;12.90;99.90;;;;;;10550654;28;20044;-36
2023/11/05 18:03:06;;;;;;;10.30;2.17;;;12.90;99.90;;;;;;10542116;28;20040;-33
2023/11/05 18:08:09;;;;;;;4.13;1.40;;;12.80;99.90;;;;;;10549162;28;20039;-36
2023/11/05 18:13:12;;;;;;;9.40;1.60;;;12.70;99.90;;;;;;10545654;28;21043;-36
2023/11/05 18:18:14;;;;;;;9.48;1.50;;;12.90;99.90;;;;;;10543605;28;20043;-34
2023/11/05 18:23:17;;;;;;;5.53;1.88;;;12.70;99.90;;;;;;10539353;28;20036;-31
2023/11/05 18:28:19;;;;;;;11.10;1.92;;;12.70;99.90;;;;;;10545869;28;20050;-31
2023/11/05 18:33:23;;;;;;;18.00;2.25;;;12.80;99.90;;;;;;10547322;28;20157;-38
2023/11/05 18:38:26;;;;;;;11.32;1.55;;;12.90;99.90;;;;;;10541670;28;20071;-46
2023/11/05 18:43:28;;;;;;;12.15;1.73;;;12.90;99.90;;;;;;10545439;28;20113;-40
2023/11/05 18:48:29;;;;;;;3.97;1.20;;;12.50;99.90;;;;;;10545463;28;20059;-34
2023/11/05 18:53:34;;;;;;;3.55;0.88;;;12.80;99.90;;;;;;10540265;28;20105;-35
2023/11/05 18:58:36;;;;;;;6.22;1.02;;;12.60;99.90;;;;;;10546356;28;20058;-31
2023/11/05 19:03:38;;;;;;;5.90;1.90;;;13.00;99.90;;;;;;10545551;28;20040;-37
2023/11/05 19:08:41;;;;;;;3.23;0.73;;;12.70;99.90;;;;;;10543084;28;20040;-34
2023/11/05 19:13:43;;;;;;;10.77;1.67;;;12.90;99.90;;;;;;10543251;28;20138;-36
2023/11/05 19:18:45;;;;;;;4.25;1.00;;;12.90;99.90;;;;;;10533903;28;20032;-37
2023/11/05 19:23:48;;;;;;;5.18;1.00;;;12.80;99.90;;;;;;10540895;28;20433;-29
2023/11/05 19:28:51;;;;;;;8.55;1.35;;;12.50;99.90;;;;;;10541831;28;20122;-34
2023/11/05 19:33:53;;;;;;;6.35;1.45;;;12.70;99.90;;;;;;10539730;28;20055;-37
2023/11/05 19:38:58;;;;;;;6.05;1.08;;;12.80;99.90;;;;;;10537706;28;20040;-35
2023/11/05 19:44:00;;;;;;;7.95;1.13;;;12.90;99.90;;;;;;10539383;28;20571;-38
2023/11/05 19:49:02;;;;;;;9.55;1.45;;;13.10;99.90;;;;;;10537735;28;20126;-49
2023/11/05 19:54:05;;;;;;;2.73;1.00;;;12.50;99.90;;;;;;10536735;28;20058;-35
2023/11/05 19:59:07;;;;;;;6.40;1.08;;;12.60;99.90;;;;;;10540140;28;20044;-35
2023/11/05 20:04:09;;;;;;;10.50;2.03;;;12.20;99.90;;;;;;10538372;28;20075;-33
2023/11/05 20:09:12;;;;;;;6.13;1.48;;;12.30;99.90;;;;;;10542310;28;20040;-33
2023/11/05 20:14:14;;;;;;;2.38;0.93;;;12.80;99.90;;;;;;10541296;28;20296;-33
2023/11/05 20:19:16;;;;;;;5.13;1.15;;;13.00;99.90;;;;;;10531344;28;20649;-31
2023/11/05 20:24:19;;;;;;;13.52;1.38;;;12.90;99.90;;;;;;10539302;28;20040;-35
2023/11/05 20:29:22;;;;;;;5.15;1.05;;;12.50;99.90;;;;;;10538318;28;20055;-34
2023/11/05 20:34:23;;;;;;;7.32;0.88;;;12.30;99.90;;;;;;10541658;28;20520;-48
2023/11/05 20:39:27;;;;;;;12.48;1.35;;;12.80;99.90;;;;;;10541465;28;20042;-31
2023/11/05 20:44:29;;;;;;;9.13;1.40;;;12.10;99.90;;;;;;10544531;28;20051;-38
2023/11/05 20:49:32;;;;;;;;;;;12.70;99.90;;;;;;10539716;28;20040;-37
2023/11/05 20:54:36;;;;;;;6.43;1.10;;;12.20;99.90;;;;;;10535048;28;20007;-31
2023/11/05 20:59:38;;;;;;;10.07;1.77;;;12.20;99.90;;;;;;10552075;28;20071;-30
2023/11/05 21:04:40;;;;;;;5.07;0.70;;;12.30;99.90;;;;;;10555010;28;20408;-45
2023/11/05 21:09:43;;;;;;;3.47;0.90;;;12.40;99.90;;;;;;10550570;28;21009;-33
2023/11/05 21:14:47;;;;;;;4.07;0.82;;;12.00;99.90;;;;;;10549283;28;20491;-34
2023/11/05 21:19:49;;;;;;;1.80;0.52;;;11.70;99.90;;;;;;10553132;28;20039;-31
2023/11/05 21:24:53;;;;;;;2.58;0.68;;;12.20;99.90;;;;;;10547862;28;20036;-34
2023/11/05 21:29:54;;;;;;;2.53;1.05;;;11.50;99.90;;;;;;10550849;28;20039;-37
2023/11/05 21:34:56;;;;;;;3.22;0.70;;;11.00;99.90;;;;;;10549500;28;20539;-33
2023/11/05 21:40:00;;;;;;;1.10;0.70;;;11.60;99.90;;;;;;10547942;28;20144;-31
2023/11/05 21:45:02;;;;;;;1.02;0.60;;;12.40;99.90;;;;;;10544227;28;20040;-39
2023/11/05 21:50:04;;;;;;;2.53;0.80;;;14.50;99.90;;;;;;10549496;28;20062;-33
2023/11/05 21:55:09;;;;;;;2.50;0.88;;;15.40;99.90;;;;;;10546411;28;20121;-31
2023/11/05 22:00:11;;;;;;;1.55;0.75;;;15.00;99.90;;;;;;10544491;28;20042;-30
2023/11/05 22:05:13;;;;;;;7.38;1.10;;;14.90;99.90;;;;;;10548626;28;20039;-34
2023/11/05 22:10:16;;;;;;;5.13;1.40;;;15.60;98.90;;;;;;10549452;28;20059;-33
2023/11/05 22:15:18;;;;;;;2.78;1.08;;;14.90;99.90;;;;;;10545966;28;20411;-37
2023/11/05 22:20:20;;;;;;;7.13;1.40;;;15.30;99.90;;;;;;10549037;28;20436;-31
2023/11/05 22:25:24;;;;;;;9.68;1.70;;;14.30;99.90;;;;;;10549828;28;20054;-33
2023/11/05 22:30:25;;;;;;;9.65;2.47;;;13.70;99.90;;;;;;10542141;28;20641;-32
2023/11/05 22:35:27;;;;;;;7.82;1.60;;;13.50;99.90;;;;;;10538456;28;20105;-40
2023/11/05 22:40:31;;;;;;;6.93;1.80;;;13.80;99.90;;;;;;10534645;28;20035;-32
2023/11/05 22:45:33;;;;;;;12.30;2.85;;;14.00;99.90;;;;;;10528925;28;23512;-37
2023/11/05 22:50:35;;;;;;;10.80;3.53;;;13.70;99.90;;;;;;10545101;28;20055;-29
2023/11/05 22:55:38;;;;;;;3.78;1.45;;;13.90;99.90;;;;;;10543276;28;20048;-38
2023/11/05 23:00:49;;;;;;;7.60;2.15;;;14.20;99.90;;;;;;10544546;28;20042;-33
2023/11/05 23:05:51;;;;;;;6.30;2.05;;;13.90;99.90;;;;;;10544031;28;20524;-29
2023/11/05 23:10:55;;;;;;;8.48;1.98;;;13.30;99.90;;;;;;10543730;28;20036;-33
2023/11/05 23:15:56;;;;;;;8.45;1.77;;;13.20;99.90;;;;;;10541707;28;20040;-38
2023/11/05 23:20:58;;;;;;;7.35;1.58;;;13.80;99.90;;;;;;10544889;28;20644;-39
2023/11/05 23:26:01;;;;;;;8.50;2.80;;;13.00;99.90;;;;;;10540502;28;20122;-43
2023/11/05 23:31:03;;;;;;;7.35;2.03;;;12.70;99.90;;;;;;10536631;28;20216;-35
2023/11/05 23:36:06;;;;;;;13.33;2.80;;;12.70;99.90;;;;;;10547882;28;20055;-34
2023/11/05 23:41:09;;;;;;;9.70;2.50;;;12.70;99.90;;;;;;10548258;28;20036;-38
2023/11/05 23:46:11;;;;;;;13.80;2.80;;;12.50;99.90;;;;;;10543531;28;20411;-34
2023/11/05 23:51:13;;;;;;;9.47;2.33;;;11.70;99.90;;;;;;10545334;28;20048;-40
2023/11/05 23:56:17;;;;;;;7.43;2.25;;;11.90;99.90;;;;;;10546252;28;20585;-40
